LFMU/BZR METAR and TAF weather

Enter ICAO airport designator
Station Type Date Time Source
LFMU METAR 2020/09/21 09:00 UTC NOAA

LFMU 210900Z AUTO 25004KT 210V320 9999 ///TCU 22/17 Q1016 BECMG NSC


Station Type Date Time Source
LFMU Decoded METAR 2020/09/21 09:00 UTC NOAA

Beziers / Vias, France (LFMU) 43-19N 003-21E
Sep 21, 2020 - 05:00 AM EDT / 2020.09.21 0900 UTC
Wind: from the WSW (250 degrees) at 5 MPH (4 KT) (direction variable):0
Visibility: greater than 7 mile(s):0
Weather: Towering cumulus clouds observed
Temperature: 71 F (22 C)
Dew Point: 62 F (17 C)
Relative Humidity: 73%
Pressure (altimeter): 30.00 in. Hg (1016 hPa)
ob: LFMU 210900Z AUTO 25004KT 210V320 9999 ///TCU 22/17 Q1016 BECMG NSC
cycle: 9

Station Type Date Time Source
LFMU TAF 2020/09/21 09:42 UTC NOAA

TAF LFMU 210800Z 2109/2209 28008KT CAVOK
TEMPO 2116/2119 21015G25KT PROB30
TEMPO 2123/2203 SHRA SCT040TCU

Example: see airport list